Weather at Rio Vista Hills Airport

Public forecast

Using degrees Fahrenheit for public forecast. Weather courtesy of forecast.io.

Closest aviation weather report (METAR) to Rio Vista Hills Airport

Closest report is Luke Air Force Base, 29.3 nm (54.3 km) SSE. Retrieved 2021/06/23 02:56 UTC (9 minutes ago):

KLUF 230256Z 23011KT 10SM FEW110 36/09 A2977 RMK SLP065 60000 T03590094 50004

Closest aviation forecast (TAF) to Rio Vista Hills Airport

Forecast is more than 6 hours old.

Closest forecast is Luke Air Force Base, 29.3 nm (54.3 km) SSE. Retrieved 2021/06/22 20:38 UTC (6 hours ago):

TAF COR KLUF 222030Z 2220/2402 22012G20KT 9999 SCT180 BKN200 QNH2972INS BECMG 2302/2303 24012KT 9999 SCT150 BKN180 QNH2975INS TEMPO 2309/2315 8000 -SHRA VCTS OVC120CB BECMG 2315/2316 24009KT 9999 VCSH SCT080 BKN120 QNH2990INS BECMG 2318/2319 VRB06KT 9999 NSW FEW100 QNH2979INS TX43/2221Z TN24/2312Z